createdAt,value
2023-01-06T00:01:18.479Z,6.96
2023-01-06T00:03:50.184Z,7.50
2023-01-06T00:06:20.328Z,7.67
2023-01-06T00:08:48.219Z,7.82
2023-01-06T00:11:16.640Z,7.87
2023-01-06T00:13:44.508Z,7.94
2023-01-06T00:16:15.831Z,8.04
2023-01-06T00:18:44.262Z,8.09
2023-01-06T00:21:13.674Z,8.27
2023-01-06T00:23:43.161Z,8.29
2023-01-06T00:26:12.084Z,8.29
2023-01-06T00:28:40.025Z,8.26
2023-01-06T00:31:09.750Z,7.38
2023-01-06T00:33:37.930Z,8.14
2023-01-06T00:36:08.699Z,8.28
2023-01-06T00:38:37.559Z,8.15
2023-01-06T00:41:29.010Z,8.16
2023-01-06T00:43:57.727Z,8.08
2023-01-06T00:46:28.934Z,8.16
2023-01-06T00:49:05.591Z,8.32
2023-01-06T00:51:36.894Z,8.27
2023-01-06T00:54:05.207Z,8.33
2023-01-06T00:56:37.158Z,7.60
2023-01-06T00:59:05.283Z,8.35
2023-01-06T01:01:33.708Z,8.39
2023-01-06T01:04:17.735Z,8.52
2023-01-06T01:06:49.639Z,8.55
2023-01-06T01:09:19.258Z,8.56
2023-01-06T01:12:08.738Z,7.96
2023-01-06T01:14:37.238Z,8.68
2023-01-06T01:17:05.372Z,8.71
2023-01-06T01:19:33.806Z,8.75
2023-01-06T01:22:02.251Z,8.73
2023-01-06T01:24:30.216Z,8.73
2023-01-06T01:26:59.504Z,8.76
2023-01-06T01:29:27.716Z,8.74
2023-01-06T01:31:55.893Z,8.77
2023-01-06T01:34:24.652Z,8.80
2023-01-06T01:36:54.342Z,8.78
2023-01-06T01:39:24.326Z,8.45
2023-01-06T01:41:53.153Z,8.72
2023-01-06T01:44:54.229Z,8.83
2023-01-06T01:47:29.786Z,8.71
2023-01-06T01:50:01.548Z,8.92
2023-01-06T01:52:30.083Z,8.91
2023-01-06T01:54:58.432Z,8.89
2023-01-06T01:57:31.228Z,8.89
2023-01-06T02:00:02.471Z,8.94
2023-01-06T02:02:32.768Z,8.96
2023-01-06T02:05:02.040Z,8.88
2023-01-06T02:07:30.386Z,9.00
2023-01-06T02:10:05.536Z,8.94
2023-01-06T02:12:33.719Z,8.91
2023-01-06T02:15:03.145Z,8.91
2023-01-06T02:17:44.610Z,8.83
2023-01-06T02:20:30.915Z,8.89
2023-01-06T02:23:45.780Z,8.93
2023-01-06T02:26:53.218Z,9.01
2023-01-06T02:29:58.553Z,9.04
2023-01-06T02:32:38.187Z,8.97
2023-01-06T02:35:30.145Z,9.00
2023-01-06T02:38:10.482Z,9.09
2023-01-06T02:40:51.486Z,9.07
2023-01-06T02:43:28.533Z,8.79
2023-01-06T02:46:03.887Z,9.07
2023-01-06T02:48:43.520Z,8.97
2023-01-06T02:51:18.931Z,9.00
2023-01-06T02:53:59.390Z,8.50
2023-01-06T02:56:32.329Z,8.94
2023-01-06T02:59:07.385Z,8.94
2023-01-06T03:01:40.780Z,8.91
2023-01-06T03:04:12.890Z,9.00
2023-01-06T03:06:45.575Z,8.87
2023-01-06T03:09:15.421Z,8.69
2023-01-06T03:11:45.881Z,9.03
2023-01-06T03:14:19.390Z,8.82
2023-01-06T03:16:47.290Z,9.01
2023-01-06T03:19:17.085Z,8.96
2023-01-06T03:21:47.864Z,8.91
2023-01-06T03:24:16.669Z,8.91
2023-01-06T03:26:46.472Z,8.87
2023-01-06T03:29:17.937Z,8.84
2023-01-06T03:31:59.627Z,8.74
2023-01-06T03:34:43.167Z,8.82
2023-01-06T03:37:20.910Z,8.67
2023-01-06T03:39:57.384Z,8.68
2023-01-06T03:42:53.173Z,8.75
2023-01-06T03:45:43.445Z,8.28
2023-01-06T03:48:19.328Z,8.61
2023-01-06T03:50:52.957Z,8.50
2023-01-06T03:53:30.687Z,8.61
2023-01-06T03:56:07.099Z,8.63
2023-01-06T03:58:37.205Z,8.55
2023-01-06T04:01:06.974Z,8.51
2023-01-06T04:03:35.677Z,8.38
2023-01-06T04:06:42.038Z,8.33
2023-01-06T04:09:46.283Z,8.44
2023-01-06T04:12:31.855Z,8.31
2023-01-06T04:14:59.737Z,8.36
2023-01-06T04:17:27.650Z,8.35
2023-01-06T04:19:55.521Z,8.27
2023-01-06T04:22:24.913Z,8.15
2023-01-06T04:24:52.835Z,8.39
2023-01-06T04:27:20.900Z,8.40
2023-01-06T04:29:49.002Z,8.41
2023-01-06T04:32:17.081Z,8.35
2023-01-06T04:34:44.991Z,8.33
2023-01-06T04:37:16.518Z,8.33
2023-01-06T04:39:53.302Z,8.09
2023-01-06T04:42:21.394Z,8.28
2023-01-06T04:44:52.413Z,8.28
2023-01-06T04:47:30.528Z,8.13
2023-01-06T04:49:59.137Z,8.27
2023-01-06T04:52:28.346Z,8.25
2023-01-06T04:54:57.570Z,8.27
2023-01-06T04:57:25.443Z,8.24
2023-01-06T04:59:53.285Z,8.25
2023-01-06T05:02:21.124Z,8.31
2023-01-06T05:04:48.914Z,8.32
2023-01-06T05:07:16.829Z,8.33
2023-01-06T05:09:44.817Z,8.13
2023-01-06T05:12:14.012Z,8.35
2023-01-06T05:14:41.967Z,8.34
2023-01-06T05:17:09.794Z,8.32
2023-01-06T05:19:37.679Z,8.35
2023-01-06T05:22:05.579Z,8.40
2023-01-06T05:24:33.435Z,8.35
2023-01-06T05:27:01.348Z,8.29
2023-01-06T05:29:30.581Z,8.27
2023-01-06T05:31:58.553Z,8.26
2023-01-06T05:34:26.795Z,8.07
2023-01-06T05:36:54.853Z,8.14
2023-01-06T05:39:22.727Z,8.13
2023-01-06T05:41:50.594Z,8.11
2023-01-06T05:44:20.715Z,8.01
2023-01-06T05:47:20.629Z,8.04
2023-01-06T05:49:48.527Z,8.02
2023-01-06T05:52:17.585Z,8.07
2023-01-06T05:54:45.464Z,7.44
2023-01-06T05:57:13.487Z,7.91
2023-01-06T05:59:41.459Z,8.02
2023-01-06T06:02:10.837Z,8.06
2023-01-06T06:04:38.800Z,8.03
2023-01-06T06:07:06.727Z,8.21
2023-01-06T06:09:34.644Z,8.40
2023-01-06T06:12:02.535Z,8.54
2023-01-06T06:14:30.752Z,8.76
2023-01-06T06:16:58.577Z,8.99
2023-01-06T06:19:27.924Z,9.01
2023-01-06T06:21:55.997Z,9.41
2023-01-06T06:24:24.039Z,9.51
2023-01-06T06:26:51.894Z,9.72
2023-01-06T06:29:19.745Z,9.79
2023-01-06T06:31:47.700Z,10.12
2023-01-06T06:34:15.926Z,10.38
2023-01-06T06:36:45.142Z,10.30
2023-01-06T06:39:13.040Z,10.68
2023-01-06T06:41:40.956Z,10.79
2023-01-06T06:44:09.451Z,10.83
2023-01-06T06:46:37.329Z,10.82
2023-01-06T06:49:05.248Z,10.81
2023-01-06T06:51:33.144Z,10.95
2023-01-06T06:54:02.500Z,10.96
2023-01-06T06:56:30.463Z,10.72
2023-01-06T06:58:58.392Z,11.02
2023-01-06T07:01:26.381Z,11.05
2023-01-06T07:03:54.259Z,11.33
2023-01-06T07:06:25.647Z,11.46
2023-01-06T07:08:55.310Z,11.71
2023-01-06T07:11:24.784Z,11.64
2023-01-06T07:13:52.684Z,11.81
2023-01-06T07:16:23.156Z,11.85
2023-01-06T07:18:51.152Z,11.82
2023-01-06T07:21:19.065Z,9.43
2023-01-06T07:23:46.890Z,12.02
2023-01-06T07:26:15.826Z,11.87
2023-01-06T07:28:45.126Z,11.89
2023-01-06T07:31:13.031Z,11.90
2023-01-06T07:33:40.964Z,11.53
2023-01-06T07:36:10.174Z,11.91
2023-01-06T07:38:38.066Z,12.09
2023-01-06T07:41:06.152Z,11.42
2023-01-06T07:43:34.101Z,11.99
2023-01-06T07:46:03.435Z,12.08
2023-01-06T07:48:31.401Z,12.26
2023-01-06T07:50:59.826Z,11.95
2023-01-06T07:53:27.806Z,12.37
2023-01-06T07:55:56.135Z,12.24
2023-01-06T07:58:25.021Z,12.21
2023-01-06T08:00:53.423Z,11.90
2023-01-06T08:03:22.804Z,12.09
2023-01-06T08:05:52.038Z,12.03
2023-01-06T08:08:19.939Z,12.07
2023-01-06T08:10:47.975Z,12.38
2023-01-06T08:13:17.189Z,12.37
2023-01-06T08:15:48.658Z,11.90
2023-01-06T08:18:16.993Z,11.82
2023-01-06T08:20:46.909Z,12.35
2023-01-06T08:23:14.862Z,12.56
2023-01-06T08:25:42.768Z,12.53
2023-01-06T08:28:10.603Z,12.46
2023-01-06T08:30:40.228Z,12.55
2023-01-06T08:33:08.275Z,12.32
2023-01-06T08:35:36.885Z,12.73
2023-01-06T08:38:06.097Z,12.84
2023-01-06T08:40:35.303Z,12.59
2023-01-06T08:43:03.151Z,12.58
2023-01-06T08:45:32.887Z,12.20
2023-01-06T08:48:00.794Z,12.79
2023-01-06T08:50:28.970Z,12.91
2023-01-06T08:52:56.920Z,12.77
2023-01-06T08:55:26.219Z,12.79
2023-01-06T08:57:55.177Z,13.21
2023-01-06T09:00:23.241Z,12.81
2023-01-06T09:02:51.184Z,12.86
2023-01-06T09:05:19.250Z,12.82
2023-01-06T09:07:47.174Z,13.29
2023-01-06T09:10:15.069Z,13.43
2023-01-06T09:12:44.499Z,13.31
2023-01-06T09:15:12.955Z,13.47
2023-01-06T09:17:40.967Z,13.34
2023-01-06T09:20:09.710Z,13.02
2023-01-06T09:22:38.116Z,13.73
2023-01-06T09:25:06.980Z,13.52
2023-01-06T09:27:34.836Z,13.75
2023-01-06T09:30:04.717Z,13.74
2023-01-06T09:32:32.719Z,13.53
2023-01-06T09:35:00.619Z,13.72
2023-01-06T09:37:28.502Z,13.59
2023-01-06T09:39:56.390Z,13.09
2023-01-06T09:42:48.977Z,13.27
2023-01-06T09:45:21.131Z,13.43
2023-01-06T09:47:53.735Z,12.63
2023-01-06T09:50:30.287Z,13.42
2023-01-06T09:53:02.261Z,13.20
2023-01-06T09:55:35.952Z,13.00
2023-01-06T09:58:09.797Z,12.75
2023-01-06T10:00:42.805Z,12.93
2023-01-06T10:03:15.566Z,12.86
2023-01-06T10:05:53.775Z,13.10
2023-01-06T10:08:32.259Z,13.04
2023-01-06T10:11:12.759Z,12.70
2023-01-06T10:13:56.793Z,12.09
2023-01-06T10:16:34.350Z,12.10
2023-01-06T10:19:16.129Z,12.47
2023-01-06T10:21:49.126Z,12.03
2023-01-06T10:24:37.923Z,13.03
2023-01-06T10:27:20.868Z,12.83
2023-01-06T10:29:52.668Z,12.88
2023-01-06T10:32:23.321Z,13.28
2023-01-06T10:34:52.384Z,12.91
2023-01-06T10:37:24.798Z,13.34
2023-01-06T10:40:00.591Z,13.24
2023-01-06T10:43:00.269Z,13.25
2023-01-06T10:45:35.622Z,13.55
2023-01-06T10:48:07.050Z,13.78
2023-01-06T10:50:36.327Z,13.98
2023-01-06T10:53:04.630Z,13.77
2023-01-06T10:55:40.297Z,13.32
2023-01-06T10:58:31.355Z,12.96
2023-01-06T11:01:01.943Z,13.11
2023-01-06T11:03:34.247Z,13.18
2023-01-06T11:06:09.612Z,13.27
2023-01-06T11:08:38.954Z,13.35
2023-01-06T11:11:26.811Z,13.32
2023-01-06T11:13:58.845Z,12.49
2023-01-06T11:16:36.605Z,11.69
2023-01-06T11:19:09.408Z,11.37
2023-01-06T11:21:44.137Z,11.27
2023-01-06T11:24:23.942Z,11.84
2023-01-06T11:26:54.872Z,12.13
2023-01-06T11:29:33.302Z,12.09
2023-01-06T11:32:26.712Z,12.23
2023-01-06T11:34:58.200Z,12.65
2023-01-06T11:37:41.340Z,12.74
2023-01-06T11:40:20.752Z,12.93
2023-01-06T11:42:50.353Z,13.00
2023-01-06T11:45:34.144Z,13.66
2023-01-06T11:48:02.692Z,13.52
2023-01-06T11:50:32.725Z,13.01
2023-01-06T11:53:02.754Z,13.31
2023-01-06T11:55:30.840Z,13.26
2023-01-06T11:58:03.165Z,12.89
2023-01-06T12:00:44.048Z,12.59
2023-01-06T12:03:24.716Z,12.37
2023-01-06T12:06:01.538Z,12.44
2023-01-06T12:08:36.451Z,12.39
2023-01-06T12:11:10.505Z,12.59
2023-01-06T12:13:49.780Z,12.51
2023-01-06T12:16:36.485Z,13.21
2023-01-06T12:19:14.183Z,13.01
2023-01-06T12:21:43.827Z,12.86
2023-01-06T12:24:17.575Z,12.48
2023-01-06T12:26:46.660Z,12.08
2023-01-06T12:29:18.996Z,11.51
2023-01-06T12:31:56.634Z,11.76
2023-01-06T12:34:29.754Z,11.15
2023-01-06T12:37:05.896Z,11.36
2023-01-06T12:39:42.250Z,11.31
2023-01-06T12:42:22.105Z,10.74
2023-01-06T12:44:54.620Z,11.04
2023-01-06T12:47:27.843Z,11.18
2023-01-06T12:50:02.096Z,11.05
2023-01-06T12:52:38.571Z,10.95
2023-01-06T12:55:07.769Z,11.19
2023-01-06T12:57:47.441Z,11.19
2023-01-06T13:00:35.212Z,10.82
2023-01-06T13:03:34.116Z,10.82
2023-01-06T13:06:14.030Z,10.83
2023-01-06T13:09:00.345Z,10.99
2023-01-06T13:11:41.683Z,10.89
2023-01-06T13:14:18.759Z,10.41
2023-01-06T13:16:55.148Z,10.54
2023-01-06T13:19:37.211Z,10.56
2023-01-06T13:22:08.784Z,10.59
2023-01-06T13:24:56.807Z,10.25
2023-01-06T13:27:38.327Z,10.44
2023-01-06T13:30:24.344Z,10.06
2023-01-06T13:33:09.519Z,10.35
2023-01-06T13:35:51.451Z,10.37
2023-01-06T13:38:34.142Z,10.44
2023-01-06T13:41:07.391Z,10.41
2023-01-06T13:43:36.539Z,10.53
2023-01-06T13:46:07.453Z,10.39
2023-01-06T13:48:39.694Z,10.02
2023-01-06T13:51:11.256Z,10.13
2023-01-06T13:53:41.266Z,10.13
2023-01-06T13:56:35.274Z,9.83
2023-01-06T13:59:23.842Z,9.92
2023-01-06T14:01:53.022Z,10.13
2023-01-06T14:04:48.827Z,9.25
2023-01-06T14:07:33.103Z,9.97
2023-01-06T14:10:02.336Z,10.02
2023-01-06T14:12:34.464Z,9.97
2023-01-06T14:15:06.001Z,9.78
2023-01-06T14:17:41.459Z,10.03
2023-01-06T14:20:27.764Z,10.00
2023-01-06T14:23:01.684Z,9.51
2023-01-06T14:25:30.871Z,10.01
2023-01-06T14:28:26.612Z,9.93
2023-01-06T14:31:27.733Z,9.88
2023-01-06T14:33:58.191Z,9.84
2023-01-06T14:36:27.913Z,9.76
2023-01-06T14:38:59.320Z,9.79
2023-01-06T14:41:30.165Z,9.86
2023-01-06T14:44:03.659Z,9.33
2023-01-06T14:46:34.971Z,9.84
2023-01-06T14:49:05.298Z,9.81
2023-01-06T14:51:35.280Z,9.77
2023-01-06T14:54:06.204Z,9.75
2023-01-06T14:56:34.559Z,9.78
2023-01-06T14:59:11.798Z,9.74
2023-01-06T15:01:42.606Z,9.69
2023-01-06T15:04:23.838Z,9.67
2023-01-06T15:07:06.815Z,9.53
2023-01-06T15:09:34.823Z,9.54
2023-01-06T15:12:02.705Z,9.50
2023-01-06T15:14:34.558Z,9.45
2023-01-06T15:17:05.106Z,9.39
2023-01-06T15:19:33.565Z,9.15
2023-01-06T15:22:06.906Z,9.30
2023-01-06T15:24:39.384Z,9.30
2023-01-06T15:27:09.696Z,8.27
2023-01-06T15:29:38.960Z,9.26
2023-01-06T15:32:12.878Z,9.20
2023-01-06T15:34:46.544Z,9.24
2023-01-06T15:37:20.481Z,8.82
2023-01-06T15:39:49.662Z,9.18
2023-01-06T15:42:20.691Z,8.96
2023-01-06T15:44:57.757Z,9.18
2023-01-06T15:47:31.978Z,9.18
2023-01-06T15:50:03.557Z,9.16
2023-01-06T15:52:34.317Z,8.99
2023-01-06T15:55:04.586Z,9.06
2023-01-06T15:57:37.909Z,9.06
2023-01-06T16:00:10.243Z,9.04
2023-01-06T16:02:38.652Z,8.99
2023-01-06T16:05:06.967Z,8.97
2023-01-06T16:07:40.298Z,8.96
2023-01-06T16:10:34.753Z,9.04
2023-01-06T16:13:15.279Z,9.06
2023-01-06T16:15:48.306Z,9.07
2023-01-06T16:18:17.536Z,9.05
2023-01-06T16:20:45.522Z,8.99
2023-01-06T16:23:27.531Z,9.00
2023-01-06T16:26:08.971Z,9.02
2023-01-06T16:28:42.691Z,8.41
2023-01-06T16:31:13.629Z,8.92
2023-01-06T16:33:44.256Z,8.09
2023-01-06T16:36:14.792Z,8.50
2023-01-06T16:38:42.667Z,8.82
2023-01-06T16:41:17.018Z,8.78
2023-01-06T16:43:45.423Z,8.68
2023-01-06T16:46:20.729Z,8.73
2023-01-06T16:48:48.787Z,8.70
2023-01-06T16:51:18.983Z,8.64
2023-01-06T16:53:47.736Z,8.51
2023-01-06T16:56:19.165Z,8.64
2023-01-06T16:58:47.105Z,8.65
2023-01-06T17:01:18.688Z,8.34
2023-01-06T17:03:52.355Z,8.52
2023-01-06T17:06:22.032Z,8.46
2023-01-06T17:08:51.239Z,8.46
2023-01-06T17:11:21.491Z,8.46
2023-01-06T17:13:54.055Z,8.42
2023-01-06T17:16:29.783Z,8.40
2023-01-06T17:18:59.978Z,8.41
2023-01-06T17:21:30.840Z,7.81
2023-01-06T17:24:06.450Z,8.40
2023-01-06T17:26:34.871Z,8.36
2023-01-06T17:29:03.438Z,8.33
2023-01-06T17:31:35.252Z,8.34
2023-01-06T17:34:11.622Z,8.11
2023-01-06T17:36:41.706Z,8.27
2023-01-06T17:39:18.141Z,8.37
2023-01-06T17:41:46.039Z,7.59
2023-01-06T17:44:16.923Z,8.38
2023-01-06T17:46:46.964Z,8.38
2023-01-06T17:49:35.711Z,8.35
2023-01-06T17:52:15.380Z,7.80
2023-01-06T17:55:02.114Z,8.33
2023-01-06T17:57:29.992Z,8.36
2023-01-06T17:59:58.404Z,8.36
2023-01-06T18:02:40.667Z,8.44
2023-01-06T18:05:48.504Z,8.05
2023-01-06T18:08:17.640Z,8.34
2023-01-06T18:10:47.332Z,8.28
2023-01-06T18:13:17.520Z,8.30
2023-01-06T18:15:47.001Z,7.49
2023-01-06T18:18:20.548Z,7.18
2023-01-06T18:20:49.213Z,8.20
2023-01-06T18:23:20.725Z,8.17
2023-01-06T18:25:49.988Z,8.08
2023-01-06T18:28:20.090Z,8.11
2023-01-06T18:30:51.563Z,8.12
2023-01-06T18:33:20.827Z,8.07
2023-01-06T18:35:52.611Z,7.99
2023-01-06T18:38:20.785Z,7.73
2023-01-06T18:40:48.716Z,7.96
2023-01-06T18:43:27.786Z,7.94
2023-01-06T18:45:59.913Z,7.95
2023-01-06T18:48:33.423Z,7.57
2023-01-06T18:51:02.631Z,7.85
2023-01-06T18:53:32.144Z,7.86
2023-01-06T18:56:02.325Z,7.86
2023-01-06T18:58:46.331Z,7.87
2023-01-06T19:01:20.265Z,7.76
2023-01-06T19:03:59.375Z,7.84
2023-01-06T19:06:45.516Z,7.83
2023-01-06T19:09:27.077Z,7.83
2023-01-06T19:12:01.132Z,7.83
2023-01-06T19:14:31.248Z,7.78
2023-01-06T19:17:00.357Z,6.98
2023-01-06T19:19:35.561Z,7.67
2023-01-06T19:22:15.870Z,7.56
2023-01-06T19:24:47.901Z,7.59
2023-01-06T19:27:45.527Z,7.38
2023-01-06T19:30:51.420Z,7.59
2023-01-06T19:33:38.642Z,7.48
2023-01-06T19:36:43.172Z,7.65
2023-01-06T19:39:25.252Z,7.51
2023-01-06T19:41:54.894Z,7.19
2023-01-06T19:44:29.723Z,7.53
2023-01-06T19:46:57.523Z,7.46
2023-01-06T19:49:31.495Z,7.33
2023-01-06T19:52:02.094Z,7.38
2023-01-06T19:54:34.809Z,7.02
2023-01-06T19:57:03.367Z,7.16
2023-01-06T19:59:33.829Z,7.09
2023-01-06T20:02:16.728Z,6.89
2023-01-06T20:04:44.648Z,7.05
2023-01-06T20:07:13.943Z,6.77
2023-01-06T20:09:41.811Z,6.86
2023-01-06T20:12:09.738Z,6.88
2023-01-06T20:14:37.610Z,6.89
2023-01-06T20:17:05.672Z,6.86
2023-01-06T20:19:33.575Z,6.88
2023-01-06T20:22:01.465Z,6.88
2023-01-06T20:24:30.687Z,6.88
2023-01-06T20:26:58.647Z,6.77
2023-01-06T20:29:26.524Z,6.23
2023-01-06T20:31:54.571Z,6.00
2023-01-06T20:34:22.475Z,6.17
2023-01-06T20:36:50.713Z,5.47
2023-01-06T20:39:18.772Z,6.27
2023-01-06T20:41:48.151Z,6.35
2023-01-06T20:44:16.099Z,6.04
2023-01-06T20:46:44.005Z,6.10
2023-01-06T20:49:13.140Z,6.12
2023-01-06T20:51:41.046Z,6.17
2023-01-06T20:54:09.032Z,6.18
2023-01-06T20:56:37.022Z,6.18
2023-01-06T20:59:06.326Z,6.28
2023-01-06T21:01:34.265Z,6.34
2023-01-06T21:04:02.164Z,6.42
2023-01-06T21:06:30.064Z,6.43
2023-01-06T21:08:57.898Z,6.41
2023-01-06T21:11:25.760Z,6.00
2023-01-06T21:13:53.580Z,4.48
2023-01-06T21:16:22.919Z,5.54
2023-01-06T21:18:51.402Z,5.73
2023-01-06T21:21:19.310Z,5.55
2023-01-06T21:23:47.185Z,5.25
2023-01-06T21:26:15.054Z,5.08
2023-01-06T21:28:42.984Z,5.27
2023-01-06T21:31:10.916Z,5.31
2023-01-06T21:33:40.172Z,5.08
2023-01-06T21:39:13.981Z,3.79
2023-01-06T21:41:59.488Z,4.59
2023-01-06T21:44:27.355Z,4.47
2023-01-06T21:46:55.287Z,4.50
2023-01-06T21:49:24.814Z,4.44
2023-01-06T21:51:54.136Z,4.57
2023-01-06T21:54:22.138Z,4.20
2023-01-06T21:56:50.514Z,4.52
2023-01-06T21:59:18.656Z,4.33
2023-01-06T22:01:46.650Z,4.47
2023-01-06T22:04:14.695Z,4.32
2023-01-06T22:06:45.002Z,4.36
2023-01-06T22:09:15.932Z,4.20
2023-01-06T22:11:44.790Z,4.74
2023-01-06T22:14:14.560Z,4.98
2023-01-06T22:16:43.398Z,4.14
2023-01-06T22:19:13.793Z,4.06
2023-01-06T22:21:45.359Z,3.83
2023-01-06T22:24:16.453Z,3.96
2023-01-06T22:26:44.326Z,4.02
2023-01-06T22:29:12.234Z,3.86
2023-01-06T22:31:40.503Z,3.53
2023-01-06T22:34:08.677Z,3.82
2023-01-06T22:36:36.777Z,4.09
2023-01-06T22:39:07.084Z,4.36
2023-01-06T22:41:35.117Z,4.37
2023-01-06T22:44:03.184Z,3.90
2023-01-06T22:46:32.307Z,3.52
2023-01-06T22:49:00.246Z,3.52
2023-01-06T22:51:28.725Z,3.14
2023-01-06T22:53:57.091Z,3.42
2023-01-06T22:56:26.516Z,3.38
2023-01-06T22:58:54.482Z,3.55
2023-01-06T23:01:22.611Z,3.57
2023-01-06T23:03:50.613Z,3.28
2023-01-06T23:06:18.875Z,3.65
2023-01-06T23:08:59.582Z,3.64
2023-01-06T23:11:32.572Z,3.65
2023-01-06T23:14:00.735Z,3.84
2023-01-06T23:16:30.297Z,3.52
2023-01-06T23:18:58.469Z,3.99
2023-01-06T23:21:27.911Z,3.87
2023-01-06T23:23:55.985Z,3.96
2023-01-06T23:26:28.095Z,3.85
2023-01-06T23:28:58.884Z,3.94
2023-01-06T23:31:29.643Z,4.04
2023-01-06T23:34:00.287Z,4.02
2023-01-06T23:36:30.773Z,3.68
2023-01-06T23:38:59.813Z,4.03
2023-01-06T23:41:29.689Z,3.79
2023-01-06T23:43:59.300Z,3.63
2023-01-06T23:46:29.709Z,3.91
2023-01-06T23:48:58.636Z,3.80
2023-01-06T23:51:30.184Z,3.81
2023-01-06T23:53:58.147Z,3.73
2023-01-06T23:56:27.357Z,3.56
2023-01-06T23:58:56.962Z,3.42
